Time;durP1;ratioP1;P1;durP2;ratioP2;P2;SDS_P1;SDS_P2;PMS_P1;PMS_P2;Temp;Humidity;BMP_temperature;BMP_pressure;BME280_temperature;BME280_humidity;BME280_pressure;Samples;Min_cycle;Max_cycle;Signal;HPM_P1;HPM_P2
2023/08/20 00:00:14;;;;;;;11.38;6.28;;;21.50;77.40;;;;;;5036953;28;20032;-66
2023/08/20 00:02:42;;;;;;;10.65;5.70;;;21.50;77.40;;;;;;5034628;28;20025;-66
2023/08/20 00:05:09;;;;;;;11.23;6.20;;;21.60;77.40;;;;;;5034267;28;20113;-66
2023/08/20 00:07:35;;;;;;;9.75;5.68;;;21.60;77.40;;;;;;5032596;28;20040;-66
2023/08/20 00:10:04;;;;;;;10.90;5.57;;;21.60;77.30;;;;;;5033331;28;20024;-66
2023/08/20 00:12:30;;;;;;;11.75;6.15;;;21.60;77.30;;;;;;5037609;28;20029;-66
2023/08/20 00:15:04;;;;;;;9.77;5.82;;;21.60;77.30;;;;;;5031835;28;20108;-66
2023/08/20 00:17:33;;;;;;;9.15;4.97;;;21.60;77.30;;;;;;5030804;28;20083;-66
2023/08/20 00:19:59;;;;;;;9.55;5.18;;;21.60;77.30;;;;;;5030998;28;20346;-66
2023/08/20 00:22:26;;;;;;;10.55;5.70;;;21.60;77.30;;;;;;5031125;28;20021;-66
2023/08/20 00:24:55;;;;;;;10.68;5.50;;;21.60;77.30;;;;;;5041209;28;20040;-66
2023/08/20 00:27:21;;;;;;;11.90;5.70;;;21.60;77.20;;;;;;5027658;28;20144;-66
2023/08/20 00:29:47;;;;;;;11.98;5.38;;;21.60;77.10;;;;;;5031080;28;20068;-66
2023/08/20 00:32:15;;;;;;;9.70;4.93;;;21.60;77.10;;;;;;5038388;28;20028;-66
2023/08/20 00:34:41;;;;;;;10.68;4.95;;;21.60;77.10;;;;;;5030298;28;20433;-66
2023/08/20 00:37:07;;;;;;;11.45;5.20;;;21.60;77.10;;;;;;5028952;28;20121;-66
2023/08/20 00:39:33;;;;;;;10.88;5.22;;;21.50;77.00;;;;;;5033781;28;20031;-66
2023/08/20 00:41:58;;;;;;;12.38;5.68;;;21.50;77.10;;;;;;5042137;28;20021;-66
2023/08/20 00:44:24;;;;;;;9.60;4.97;;;21.50;77.80;;;;;;5029318;28;20432;-66
2023/08/20 00:46:51;;;;;;;11.75;4.90;;;21.50;77.20;;;;;;5030199;28;20033;-66
2023/08/20 00:49:18;;;;;;;11.10;4.93;;;21.40;77.20;;;;;;5030799;28;20029;-66
2023/08/20 00:51:45;;;;;;;9.13;4.28;;;21.40;77.20;;;;;;5042251;28;20365;-66
2023/08/20 00:54:11;;;;;;;9.88;4.70;;;21.40;77.20;;;;;;5045995;28;20021;-66
2023/08/20 00:56:37;;;;;;;9.57;5.03;;;21.30;77.30;;;;;;5036256;28;20045;-66
2023/08/20 00:59:05;;;;;;;9.80;4.50;;;21.30;77.30;;;;;;5038903;28;20026;-66
2023/08/20 01:01:31;;;;;;;9.43;4.82;;;21.30;77.30;;;;;;5032624;28;20087;-66
2023/08/20 01:03:57;;;;;;;9.55;4.70;;;21.30;77.30;;;;;;5033297;28;20029;-66
2023/08/20 01:06:44;;;;;;;9.05;4.55;;;21.20;77.30;;;;;;5033062;28;20025;-66
2023/08/20 01:09:32;;;;;;;10.30;4.40;;;21.20;77.30;;;;;;5037698;28;20052;-66
2023/08/20 01:12:00;;;;;;;11.05;4.78;;;21.20;77.40;;;;;;5037454;28;20079;-66
2023/08/20 01:14:27;;;;;;;9.25;4.30;;;21.10;77.40;;;;;;5034898;28;20021;-66
2023/08/20 01:16:53;;;;;;;9.90;4.50;;;21.10;77.50;;;;;;5036870;28;20393;-66
2023/08/20 01:19:20;;;;;;;8.43;4.75;;;21.10;77.60;;;;;;5042150;28;20067;-66
2023/08/20 01:22:05;;;;;;;9.63;4.43;;;21.10;77.60;;;;;;5033506;28;20109;-66
2023/08/20 01:24:31;;;;;;;8.05;4.18;;;21.10;77.60;;;;;;5034539;28;20064;-66
2023/08/20 01:27:04;;;;;;;9.07;4.40;;;21.10;77.70;;;;;;5041990;28;20029;-66
2023/08/20 01:29:32;;;;;;;9.32;4.40;;;21.10;77.70;;;;;;5039867;28;20086;-66
2023/08/20 01:31:58;;;;;;;9.05;4.30;;;21.10;77.80;;;;;;5041313;28;20032;-66
2023/08/20 01:34:25;;;;;;;9.85;4.43;;;21.10;77.80;;;;;;5031285;28;20358;-66
2023/08/20 01:36:51;;;;;;;11.73;4.72;;;21.20;77.80;;;;;;5031554;28;20028;-66
2023/08/20 01:39:18;;;;;;;10.05;4.35;;;21.20;77.80;;;;;;5037307;28;20029;-66
2023/08/20 01:41:44;;;;;;;7.50;4.53;;;21.20;77.80;;;;;;5036437;28;20366;-66
2023/08/20 01:44:10;;;;;;;8.77;4.35;;;21.20;77.80;;;;;;5039893;28;20044;-66
2023/08/20 01:46:36;;;;;;;9.13;4.25;;;21.20;77.80;;;;;;5031322;28;20021;-66
2023/08/20 01:49:03;;;;;;;9.55;4.18;;;21.20;77.80;;;;;;5032299;28;20029;-66
2023/08/20 01:51:29;;;;;;;10.82;4.00;;;21.20;77.80;;;;;;5035451;28;20026;-66
2023/08/20 01:53:54;;;;;;;8.65;3.80;;;21.20;77.80;;;;;;5034303;28;20525;-66
2023/08/20 01:56:22;;;;;;;9.98;4.70;;;21.10;77.80;;;;;;5034104;28;20041;-66
2023/08/20 01:58:48;;;;;;;11.60;4.30;;;21.10;77.80;;;;;;5036113;28;20148;-66
2023/08/20 02:01:16;;;;;;;8.90;4.28;;;21.10;77.90;;;;;;5043655;28;20053;-66
2023/08/20 02:03:41;;;;;;;7.63;3.83;;;21.10;78.00;;;;;;5029116;28;20454;-66
2023/08/20 02:06:07;;;;;;;8.20;4.22;;;21.10;78.00;;;;;;5034479;28;20023;-66
2023/08/20 02:08:35;;;;;;;8.65;4.32;;;21.10;78.00;;;;;;5017539;28;20029;-66
2023/08/20 02:11:02;;;;;;;9.23;4.45;;;21.00;78.00;;;;;;5036305;28;20044;-66
2023/08/20 02:13:28;;;;;;;9.18;4.45;;;21.00;78.00;;;;;;5033199;28;20021;-66
2023/08/20 02:15:58;;;;;;;13.30;5.25;;;21.00;78.40;;;;;;5035381;28;20067;-66
2023/08/20 02:18:27;;;;;;;11.30;4.57;;;21.00;78.10;;;;;;5035949;28;20071;-66
2023/08/20 02:20:54;;;;;;;10.25;4.68;;;21.00;78.10;;;;;;5025800;28;20033;-66
2023/08/20 02:23:19;;;;;;;10.60;4.93;;;20.90;78.10;;;;;;5034297;28;20025;-66
2023/08/20 02:25:46;;;;;;;7.70;4.47;;;21.00;78.20;;;;;;5038260;28;20045;-66
2023/08/20 02:28:11;;;;;;;10.93;4.35;;;20.90;78.20;;;;;;5034207;28;20041;-66
2023/08/20 02:30:42;;;;;;;10.82;5.30;;;20.90;78.20;;;;;;5033867;28;20028;-66
2023/08/20 02:33:09;;;;;;;8.63;4.43;;;20.90;78.30;;;;;;5035004;28;20332;-66
2023/08/20 02:35:39;;;;;;;9.05;4.47;;;20.90;78.30;;;;;;5035049;28;20048;-66
2023/08/20 02:38:05;;;;;;;12.43;5.10;;;20.90;78.40;;;;;;5035503;28;20025;-66
2023/08/20 02:40:38;;;;;;;8.48;4.43;;;20.90;78.40;;;;;;5041957;28;20044;-66
2023/08/20 02:43:05;;;;;;;11.07;5.65;;;20.90;78.40;;;;;;5033773;28;20460;-66
2023/08/20 02:45:31;;;;;;;9.50;4.97;;;20.90;78.40;;;;;;5034965;28;20104;-66
2023/08/20 02:47:57;;;;;;;10.40;5.50;;;20.90;78.50;;;;;;5039818;28;20048;-66
2023/08/20 02:50:23;;;;;;;10.30;5.18;;;20.90;78.50;;;;;;5015794;28;20401;-66
2023/08/20 02:52:48;;;;;;;9.40;5.88;;;20.90;78.50;;;;;;5030959;28;20030;-66
2023/08/20 02:55:14;;;;;;;11.93;5.78;;;20.90;78.50;;;;;;5034259;28;20037;-66
2023/08/20 02:57:40;;;;;;;10.20;5.50;;;20.90;78.60;;;;;;5035654;28;20036;-66
2023/08/20 03:00:11;;;;;;;10.75;5.28;;;20.90;78.50;;;;;;5037219;28;20029;-66
2023/08/20 03:02:36;;;;;;;10.98;5.53;;;20.80;78.50;;;;;;5058120;28;20022;-66
2023/08/20 03:05:05;;;;;;;8.88;5.32;;;20.80;78.60;;;;;;5037592;28;20029;-66
2023/08/20 03:07:32;;;;;;;9.57;5.32;;;20.80;78.70;;;;;;5034228;28;20025;-66
2023/08/20 03:09:57;;;;;;;10.55;5.38;;;20.80;78.70;;;;;;5035288;28;20324;-66
2023/08/20 03:12:23;;;;;;;9.82;5.40;;;20.70;78.80;;;;;;5015705;28;20036;-66
2023/08/20 03:14:49;;;;;;;9.02;5.43;;;20.70;78.80;;;;;;5032898;28;20061;-65
2023/08/20 03:17:15;;;;;;;10.80;5.35;;;20.70;78.80;;;;;;5033623;28;20030;-66
2023/08/20 03:19:55;;;;;;;10.75;5.32;;;20.70;78.80;;;;;;5042157;28;20108;-66
2023/08/20 03:22:22;;;;;;;9.50;5.45;;;20.70;78.80;;;;;;5055542;28;20053;-66
2023/08/20 03:24:48;;;;;;;10.23;5.15;;;20.70;78.80;;;;;;5057344;28;20037;-66
2023/08/20 03:27:13;;;;;;;11.45;6.07;;;20.60;78.70;;;;;;5033990;28;20024;-66
2023/08/20 03:29:39;;;;;;;9.05;6.07;;;20.60;78.70;;;;;;5041749;28;20025;-66
2023/08/20 03:32:05;;;;;;;12.07;5.80;;;20.60;78.80;;;;;;5034405;28;20053;-66
2023/08/20 03:34:31;;;;;;;9.25;5.93;;;20.60;78.80;;;;;;5030451;28;20108;-66
2023/08/20 03:36:56;;;;;;;13.43;5.97;;;20.60;78.80;;;;;;5041834;28;20449;-66
2023/08/20 03:39:22;;;;;;;12.68;6.03;;;20.50;78.80;;;;;;5036693;28;20060;-66
2023/08/20 03:41:50;;;;;;;11.32;6.45;;;20.50;78.80;;;;;;5035738;28;20113;-66
2023/08/20 03:44:16;;;;;;;10.88;6.38;;;20.50;78.80;;;;;;5014596;28;20021;-66
2023/08/20 03:46:43;;;;;;;10.35;6.32;;;20.50;78.80;;;;;;5035845;28;20032;-66
2023/08/20 03:49:08;;;;;;;9.23;5.55;;;20.50;78.80;;;;;;5033875;28;20017;-66
2023/08/20 03:51:34;;;;;;;9.57;6.25;;;20.50;78.80;;;;;;5033729;28;20033;-66
2023/08/20 03:54:02;;;;;;;10.63;5.78;;;20.50;78.90;;;;;;5037060;28;20129;-66
2023/08/20 03:56:28;;;;;;;10.90;5.72;;;20.50;78.90;;;;;;5028217;28;20471;-66
2023/08/20 03:58:54;;;;;;;9.43;6.03;;;20.40;79.00;;;;;;5036721;28;20040;-66
2023/08/20 04:01:21;;;;;;;10.38;5.97;;;20.50;79.00;;;;;;5031798;28;20040;-66
2023/08/20 04:03:48;;;;;;;9.73;6.50;;;20.50;79.00;;;;;;5039437;28;20116;-66
2023/08/20 04:06:15;;;;;;;11.43;6.47;;;20.40;79.00;;;;;;5031111;28;20064;-66
2023/08/20 04:08:41;;;;;;;13.15;6.53;;;20.40;79.00;;;;;;5056794;28;20033;-66
2023/08/20 04:11:07;;;;;;;11.50;6.32;;;20.40;79.00;;;;;;5033230;28;20022;-66
2023/08/20 04:13:32;;;;;;;10.43;5.82;;;20.40;79.00;;;;;;5030250;28;20474;-66
2023/08/20 04:15:58;;;;;;;10.85;6.00;;;20.40;79.00;;;;;;5034334;28;20063;-66
2023/08/20 04:18:24;;;;;;;10.95;5.72;;;20.40;79.00;;;;;;5028617;28;20397;-66
2023/08/20 04:20:52;;;;;;;11.38;6.00;;;20.30;79.00;;;;;;5055522;28;20079;-66
2023/08/20 04:23:21;;;;;;;10.05;6.07;;;20.30;79.00;;;;;;5016063;28;20527;-66
2023/08/20 04:25:48;;;;;;;10.70;6.00;;;20.30;79.00;;;;;;5032237;28;20083;-66
2023/08/20 04:28:15;;;;;;;10.23;6.60;;;20.30;79.00;;;;;;5031088;28;20512;-66
2023/08/20 04:30:41;;;;;;;10.18;6.45;;;20.30;79.00;;;;;;5034413;28;20034;-66
2023/08/20 04:33:07;;;;;;;11.20;5.93;;;20.30;78.90;;;;;;5029424;28;20033;-65
2023/08/20 04:35:33;;;;;;;9.90;6.20;;;20.30;78.90;;;;;;5033357;28;20025;-66
2023/08/20 04:38:00;;;;;;;12.43;6.13;;;20.20;78.90;;;;;;5034539;28;20117;-66
2023/08/20 04:40:27;;;;;;;8.57;5.55;;;20.30;78.90;;;;;;5031302;28;20048;-65
2023/08/20 04:42:53;;;;;;;10.23;5.72;;;20.20;78.80;;;;;;5030623;28;20022;-66
2023/08/20 04:45:20;;;;;;;11.35;5.93;;;20.20;78.90;;;;;;5044701;28;20363;-66
2023/08/20 04:47:47;;;;;;;12.02;6.20;;;20.20;78.90;;;;;;5040790;28;20028;-66
2023/08/20 04:50:13;;;;;;;10.68;5.97;;;20.20;78.90;;;;;;5042738;28;20409;-66
2023/08/20 04:52:39;;;;;;;9.80;5.28;;;20.20;78.90;;;;;;5033498;28;20025;-66
2023/08/20 04:55:07;;;;;;;10.20;5.50;;;20.20;78.90;;;;;;5028621;28;20080;-66
2023/08/20 04:57:33;;;;;;;9.35;5.13;;;20.20;78.90;;;;;;5040649;28;20033;-66
2023/08/20 05:00:01;;;;;;;11.00;5.63;;;20.10;78.90;;;;;;5033049;28;20021;-66
2023/08/20 05:02:41;;;;;;;9.70;5.47;;;20.20;78.90;;;;;;5051574;28;20022;-66
2023/08/20 05:05:11;;;;;;;9.60;5.70;;;20.10;78.90;;;;;;5035193;28;20083;-66
2023/08/20 05:07:37;;;;;;;10.07;6.18;;;20.10;79.00;;;;;;5055244;28;20033;-66
2023/08/20 05:10:04;;;;;;;9.32;5.93;;;20.10;79.00;;;;;;5032902;28;20473;-66
2023/08/20 05:12:30;;;;;;;12.15;5.13;;;20.20;79.10;;;;;;5033029;28;20072;-66
2023/08/20 05:14:56;;;;;;;11.20;6.07;;;20.20;79.10;;;;;;5027392;28;20057;-66
2023/08/20 05:17:22;;;;;;;11.13;5.60;;;20.20;79.10;;;;;;5032888;28;20026;-66
2023/08/20 05:19:48;;;;;;;9.95;6.00;;;20.20;79.20;;;;;;5032282;28;20029;-66
2023/08/20 05:22:14;;;;;;;10.00;5.65;;;20.30;79.20;;;;;;5032853;28;20428;-66
2023/08/20 05:24:40;;;;;;;10.35;5.72;;;20.30;79.20;;;;;;5034301;28;20526;-66
2023/08/20 05:27:14;;;;;;;11.38;6.15;;;20.30;79.20;;;;;;5019113;28;20033;-66
2023/08/20 05:29:41;;;;;;;10.23;6.03;;;20.30;79.20;;;;;;5033603;28;20037;-66
2023/08/20 05:32:07;;;;;;;12.60;6.68;;;20.40;79.30;;;;;;5016551;28;20025;-66
2023/08/20 05:34:33;;;;;;;10.63;6.47;;;20.40;79.30;;;;;;5032955;28;20366;-66
2023/08/20 05:37:00;;;;;;;12.32;6.25;;;20.40;79.30;;;;;;5019700;28;20018;-66
2023/08/20 05:39:29;;;;;;;10.43;6.72;;;20.40;79.30;;;;;;5048616;28;20030;-66
2023/08/20 05:41:55;;;;;;;11.68;6.68;;;20.50;79.40;;;;;;5041510;28;20049;-66
2023/08/20 05:44:23;;;;;;;10.15;6.57;;;20.50;79.30;;;;;;5017778;28;20022;-66
2023/08/20 05:46:49;;;;;;;12.93;7.20;;;20.50;79.30;;;;;;5050197;28;20025;-66
2023/08/20 05:49:18;;;;;;;10.77;6.75;;;20.60;79.20;;;;;;5020784;28;20022;-66
2023/08/20 05:51:44;;;;;;;10.43;6.63;;;20.60;79.20;;;;;;5030624;28;20025;-66
2023/08/20 05:54:10;;;;;;;10.82;7.03;;;20.70;79.20;;;;;;5021569;28;20025;-66
2023/08/20 05:56:37;;;;;;;11.20;6.88;;;20.70;79.00;;;;;;5024088;28;20971;-66
2023/08/20 05:59:03;;;;;;;11.80;6.63;;;20.80;78.90;;;;;;5022925;28;20033;-65
2023/08/20 06:01:29;;;;;;;13.98;7.32;;;20.90;78.90;;;;;;5035552;28;20060;-65
2023/08/20 06:03:55;;;;;;;12.65;7.05;;;20.90;78.70;;;;;;5025826;28;20021;-66
2023/08/20 06:06:21;;;;;;;13.35;7.10;;;20.90;78.60;;;;;;5024836;28;20117;-66
2023/08/20 06:08:47;;;;;;;12.30;7.10;;;21.00;78.50;;;;;;5027951;28;21292;-66
2023/08/20 06:11:13;;;;;;;13.88;7.15;;;21.10;78.40;;;;;;5022583;28;20034;-66
2023/08/20 06:13:39;;;;;;;13.70;6.68;;;21.50;77.80;;;;;;5050874;28;20022;-66
2023/08/20 06:16:05;;;;;;;13.38;5.65;;;22.10;76.40;;;;;;5016687;28;20034;-66
2023/08/20 06:18:31;;;;;;;11.20;6.13;;;22.50;75.00;;;;;;5025376;28;20032;-66
2023/08/20 06:20:57;;;;;;;8.88;5.28;;;23.10;73.60;;;;;;5020420;28;20044;-66
2023/08/20 06:23:22;;;;;;;11.20;5.93;;;23.30;72.80;;;;;;5019481;28;20124;-66
2023/08/20 06:25:50;;;;;;;8.50;5.22;;;23.30;72.60;;;;;;5017351;28;20034;-66
2023/08/20 06:28:16;;;;;;;9.55;5.07;;;23.20;72.60;;;;;;5023039;28;20050;-66
2023/08/20 06:30:42;;;;;;;10.70;4.75;;;23.20;72.70;;;;;;5021662;28;20425;-67
2023/08/20 06:33:08;;;;;;;10.10;4.88;;;23.10;72.90;;;;;;5028458;28;20028;-66
2023/08/20 06:35:34;;;;;;;11.85;5.05;;;23.00;72.80;;;;;;5017825;28;20442;-66
2023/08/20 06:37:59;;;;;;;10.45;4.85;;;22.90;72.80;;;;;;5025791;28;20033;-66
2023/08/20 06:40:25;;;;;;;10.57;4.53;;;22.90;72.80;;;;;;5018108;28;20026;-66
2023/08/20 06:42:51;;;;;;;11.30;4.47;;;22.90;72.70;;;;;;5020189;28;20025;-66
2023/08/20 06:45:17;;;;;;;11.93;4.45;;;23.00;72.40;;;;;;5050480;28;20443;-66
2023/08/20 06:47:42;;;;;;;9.70;3.88;;;23.00;72.10;;;;;;5024806;28;20022;-66
2023/08/20 06:50:09;;;;;;;13.25;4.43;;;23.10;71.80;;;;;;5018345;28;20465;-66
2023/08/20 06:52:34;;;;;;;10.98;3.92;;;23.20;71.50;;;;;;5015507;28;20129;-66
2023/08/20 06:55:00;;;;;;;10.25;3.75;;;23.20;71.00;;;;;;5018388;28;20124;-66
2023/08/20 06:57:26;;;;;;;8.38;3.28;;;23.40;70.80;;;;;;5025931;28;20033;-66
2023/08/20 06:59:51;;;;;;;11.23;4.13;;;23.50;70.50;;;;;;5017703;28;20068;-66
2023/08/20 07:02:17;;;;;;;11.68;3.75;;;23.60;70.00;;;;;;5019340;28;20107;-66
2023/08/20 07:04:43;;;;;;;11.88;3.25;;;23.70;69.80;;;;;;5030317;28;20056;-66
2023/08/20 07:07:09;;;;;;;8.70;3.65;;;23.80;69.40;;;;;;5023397;28;20064;-66
2023/08/20 07:09:35;;;;;;;9.95;3.60;;;23.90;68.90;;;;;;5018277;28;20042;-66
2023/08/20 07:12:02;;;;;;;10.63;3.80;;;24.00;68.40;;;;;;5018580;28;20026;-66
2023/08/20 07:14:28;;;;;;;13.27;3.47;;;24.10;68.10;;;;;;5027659;28;20108;-67
2023/08/20 07:16:54;;;;;;;8.88;2.70;;;24.20;67.90;;;;;;5026188;28;20331;-69
2023/08/20 07:19:20;;;;;;;9.15;3.22;;;24.40;67.50;;;;;;5019742;28;20024;-67
2023/08/20 07:21:46;;;;;;;8.07;2.78;;;24.50;66.90;;;;;;5017590;28;20034;-67
2023/08/20 07:24:11;;;;;;;11.45;3.10;;;24.60;66.70;;;;;;5023507;28;20041;-67
2023/08/20 07:26:37;;;;;;;9.70;3.00;;;24.70;66.30;;;;;;5021811;28;20037;-67
2023/08/20 07:29:03;;;;;;;9.07;3.20;;;24.80;66.00;;;;;;5017346;28;20036;-67
2023/08/20 07:31:31;;;;;;;10.57;3.53;;;24.90;65.60;;;;;;5018152;28;20029;-67
2023/08/20 07:33:58;;;;;;;6.78;2.72;;;25.00;65.50;;;;;;5018236;28;20108;-67
2023/08/20 07:36:27;;;;;;;10.57;4.07;;;25.10;65.10;;;;;;5025763;28;20029;-67
2023/08/20 07:38:54;;;;;;;5.55;2.42;;;25.20;64.70;;;;;;5035980;28;20105;-67
2023/08/20 07:41:20;;;;;;;6.75;2.20;;;25.30;64.60;;;;;;5022863;28;20033;-67
2023/08/20 07:43:47;;;;;;;7.82;2.70;;;25.40;64.20;;;;;;5018259;28;20473;-67
2023/08/20 07:46:13;;;;;;;8.20;2.90;;;25.50;63.90;;;;;;5016196;28;20025;-67
2023/08/20 07:48:39;;;;;;;9.88;3.25;;;25.70;63.60;;;;;;5020361;28;20032;-67
2023/08/20 07:51:06;;;;;;;8.02;3.47;;;25.80;63.30;;;;;;5025893;28;20021;-68
2023/08/20 07:53:32;;;;;;;8.60;2.95;;;26.00;63.00;;;;;;5019334;28;20068;-67
2023/08/20 07:56:00;;;;;;;8.18;3.20;;;26.00;62.60;;;;;;5018109;28;20049;-68
2023/08/20 07:58:27;;;;;;;8.63;3.13;;;26.20;62.10;;;;;;5016442;28;20139;-67
2023/08/20 08:00:54;;;;;;;7.28;2.60;;;26.30;61.80;;;;;;5018330;28;20033;-67
2023/08/20 08:03:19;;;;;;;8.90;2.17;;;26.40;61.40;;;;;;5018582;28;20022;-67
2023/08/20 08:05:49;;;;;;;11.00;2.80;;;26.50;61.20;;;;;;5019201;28;20447;-67
2023/08/20 08:08:18;;;;;;;7.35;2.45;;;26.60;61.00;;;;;;5016129;28;20411;-67
2023/08/20 08:10:45;;;;;;;7.22;2.53;;;26.70;60.70;;;;;;5016549;28;20170;-67
2023/08/20 08:13:16;;;;;;;9.73;2.70;;;26.70;60.40;;;;;;5021887;28;20152;-67
2023/08/20 08:15:42;;;;;;;8.23;2.20;;;26.90;60.20;;;;;;5023210;28;20459;-67
2023/08/20 08:18:07;;;;;;;7.10;2.35;;;27.00;60.10;;;;;;5019788;28;20028;-67
2023/08/20 08:20:33;;;;;;;4.82;1.58;;;27.10;59.70;;;;;;5018466;28;20393;-67
2023/08/20 08:23:00;;;;;;;6.53;1.98;;;27.10;59.10;;;;;;5018569;28;20346;-68
2023/08/20 08:25:26;;;;;;;7.25;2.03;;;27.20;58.90;;;;;;5019600;28;20036;-67
2023/08/20 08:27:52;;;;;;;6.20;1.80;;;27.30;58.70;;;;;;5024852;28;20034;-67
2023/08/20 08:30:18;;;;;;;5.45;1.58;;;27.40;58.50;;;;;;5014368;28;20056;-68
2023/08/20 08:32:43;;;;;;;6.43;1.90;;;27.50;58.00;;;;;;5021020;28;20037;-67
2023/08/20 08:35:09;;;;;;;3.80;1.48;;;27.50;57.50;;;;;;5025907;28;20010;-67
2023/08/20 08:37:35;;;;;;;5.25;1.77;;;27.60;57.20;;;;;;5046685;28;20021;-68
2023/08/20 08:40:05;;;;;;;5.82;1.23;;;27.60;57.00;;;;;;5022648;28;20018;-67
2023/08/20 08:42:32;;;;;;;8.35;1.70;;;27.70;56.80;;;;;;5020576;28;20064;-67
2023/08/20 08:45:02;;;;;;;6.90;1.60;;;27.80;56.70;;;;;;5019802;28;20403;-67
2023/08/20 08:47:29;;;;;;;5.70;1.40;;;27.80;56.60;;;;;;5021137;28;20029;-67
2023/08/20 08:49:58;;;;;;;4.93;1.52;;;27.90;56.40;;;;;;5018731;28;20469;-67
2023/08/20 08:52:25;;;;;;;10.00;1.70;;;27.90;56.20;;;;;;5021024;28;20029;-67
2023/08/20 08:54:52;;;;;;;5.03;1.38;;;28.00;56.00;;;;;;5025950;28;20623;-68
2023/08/20 08:57:18;;;;;;;4.03;1.27;;;28.10;56.20;;;;;;5016600;28;20045;-68
2023/08/20 08:59:44;;;;;;;6.90;1.50;;;28.20;56.30;;;;;;5017224;28;20030;-68
2023/08/20 09:02:11;;;;;;;3.75;1.48;;;28.30;55.80;;;;;;5033615;28;20036;-67
2023/08/20 09:04:41;;;;;;;4.60;1.55;;;28.30;55.70;;;;;;5031027;28;20466;-67
2023/08/20 09:07:13;;;;;;;4.10;1.43;;;28.40;55.20;;;;;;5026898;28;20026;-67
2023/08/20 09:09:45;;;;;;;6.55;1.77;;;28.50;55.10;;;;;;5014779;28;20076;-69
2023/08/20 09:12:16;;;;;;;4.45;1.45;;;28.50;54.80;;;;;;5034912;28;20116;-68
2023/08/20 09:14:49;;;;;;;4.55;1.30;;;28.40;54.50;;;;;;5037729;28;20060;-68
2023/08/20 09:17:16;;;;;;;6.82;1.67;;;28.50;54.50;;;;;;5038347;28;20017;-68
2023/08/20 09:19:44;;;;;;;4.57;1.42;;;28.50;54.50;;;;;;5037077;28;20021;-68
2023/08/20 09:22:14;;;;;;;5.55;1.60;;;28.60;55.00;;;;;;5026581;28;20025;-68
2023/08/20 09:24:45;;;;;;;3.03;0.90;;;28.70;53.80;;;;;;5038098;28;20026;-68
2023/08/20 09:27:12;;;;;;;;;;;28.80;53.30;;;;;;5037427;28;20068;-68
2023/08/20 09:29:45;;;;;;;3.25;1.15;;;28.80;53.60;;;;;;5036885;28;19930;-68
2023/08/20 09:32:20;;;;;;;6.75;1.35;;;28.80;53.50;;;;;;5035314;28;20037;-68
2023/08/20 09:34:45;;;;;;;6.75;1.17;;;28.90;52.70;;;;;;5032300;28;20514;-68
2023/08/20 09:37:16;;;;;;;3.13;1.02;;;28.90;52.60;;;;;;5036673;28;20108;-68
2023/08/20 09:39:42;;;;;;;5.13;1.23;;;29.00;52.40;;;;;;5037433;28;20061;-68
2023/08/20 09:42:09;;;;;;;6.18;1.00;;;29.10;52.10;;;;;;5037457;28;20345;-68
2023/08/20 09:44:38;;;;;;;4.90;1.20;;;29.20;51.80;;;;;;5024490;28;20501;-68
2023/08/20 09:47:08;;;;;;;4.93;1.25;;;29.20;51.50;;;;;;5035630;28;20040;-68
2023/08/20 09:49:37;;;;;;;;;;;29.30;50.70;;;;;;5037525;28;20470;-68
2023/08/20 09:52:08;;;;;;;2.47;1.13;;;29.20;51.30;;;;;;5036291;28;19948;-68
2023/08/20 09:54:45;;;;;;;4.28;1.17;;;29.20;50.50;;;;;;5037292;28;20083;-68
2023/08/20 09:57:21;;;;;;;6.30;1.00;;;29.20;50.30;;;;;;5042570;28;20438;-68
2023/08/20 09:59:47;;;;;;;3.97;1.08;;;29.20;50.20;;;;;;5031743;28;20381;-68
2023/08/20 10:02:14;;;;;;;5.10;1.35;;;29.30;50.20;;;;;;5036932;28;20049;-68
2023/08/20 10:04:42;;;;;;;3.58;0.95;;;29.40;49.80;;;;;;5036852;28;20091;-68
2023/08/20 10:07:09;;;;;;;2.70;0.95;;;29.50;49.70;;;;;;5035970;28;20076;-68
2023/08/20 10:09:36;;;;;;;3.97;1.40;;;29.60;49.40;;;;;;5037055;28;20470;-68
2023/08/20 10:12:03;;;;;;;4.35;1.23;;;29.60;49.50;;;;;;5036737;28;20087;-68
2023/08/20 10:14:28;;;;;;;4.20;1.38;;;29.60;49.60;;;;;;5037036;28;20392;-68
2023/08/20 10:16:54;;;;;;;3.33;1.02;;;29.70;49.60;;;;;;5035263;28;20108;-68
2023/08/20 10:19:20;;;;;;;3.03;1.27;;;29.80;49.60;;;;;;5037185;28;20029;-68
2023/08/20 10:21:46;;;;;;;5.05;1.58;;;29.90;49.50;;;;;;5031583;28;20029;-68
2023/08/20 10:24:19;;;;;;;4.88;1.30;;;29.90;49.40;;;;;;5035110;28;20420;-68
2023/08/20 10:26:48;;;;;;;3.42;1.13;;;29.90;49.10;;;;;;5032898;28;20143;-68
2023/08/20 10:29:39;;;;;;;3.38;1.13;;;29.80;49.10;;;;;;5030985;28;20029;-68
2023/08/20 10:32:14;;;;;;;4.53;1.25;;;29.80;49.10;;;;;;5031878;28;20159;-68
2023/08/20 10:34:43;;;;;;;3.80;1.10;;;29.80;49.10;;;;;;5033458;28;20136;-68
2023/08/20 10:37:10;;;;;;;3.65;1.10;;;29.80;49.80;;;;;;5026287;28;20029;-68
2023/08/20 10:39:36;;;;;;;5.93;1.27;;;29.80;49.10;;;;;;5027618;28;20021;-68
2023/08/20 10:42:19;;;;;;;2.20;0.80;;;30.00;49.20;;;;;;5016318;28;20057;-68
2023/08/20 10:45:10;;;;;;;3.75;0.80;;;30.10;48.40;;;;;;5018267;28;20148;-68
2023/08/20 10:47:48;;;;;;;5.20;1.08;;;30.10;47.80;;;;;;5017069;28;20036;-68
2023/08/20 10:50:18;;;;;;;4.90;1.08;;;30.10;47.60;;;;;;5016450;28;20095;-68
2023/08/20 10:52:54;;;;;;;2.60;0.80;;;30.10;47.50;;;;;;5034420;28;20029;-68
2023/08/20 10:55:24;;;;;;;3.25;0.80;;;30.10;47.00;;;;;;5018397;28;20037;-68
2023/08/20 10:57:57;;;;;;;2.60;0.80;;;30.10;46.90;;;;;;5031019;28;20025;-68
2023/08/20 11:00:23;;;;;;;1.80;0.80;;;30.10;47.10;;;;;;5036678;28;20036;-68
2023/08/20 11:02:49;;;;;;;3.38;1.05;;;30.10;47.20;;;;;;5031678;28;20080;-68
2023/08/20 11:05:21;;;;;;;3.53;1.25;;;30.10;46.80;;;;;;5034477;28;20124;-68
2023/08/20 11:07:48;;;;;;;3.78;1.30;;;30.10;46.50;;;;;;5019669;28;20056;-68
2023/08/20 11:10:17;;;;;;;3.70;1.17;;;30.10;46.40;;;;;;5031111;28;20061;-68
2023/08/20 11:12:46;;;;;;;2.38;0.90;;;30.10;46.30;;;;;;5018259;28;20045;-69
2023/08/20 11:15:11;;;;;;;2.97;1.00;;;30.10;46.30;;;;;;5049004;28;20037;-68
2023/08/20 11:17:45;;;;;;;5.25;0.93;;;30.10;46.40;;;;;;5022397;28;20021;-69
2023/08/20 11:20:14;;;;;;;4.00;1.02;;;30.10;46.00;;;;;;5034445;28;20155;-69
2023/08/20 11:22:41;;;;;;;6.85;1.33;;;30.10;46.10;;;;;;5028502;28;20108;-69
2023/08/20 11:25:12;;;;;;;3.30;1.10;;;30.10;46.10;;;;;;5029226;28;20048;-69
2023/08/20 11:27:42;;;;;;;3.53;1.05;;;30.20;46.00;;;;;;5040259;28;20029;-69
2023/08/20 11:30:14;;;;;;;3.25;0.80;;;30.20;46.00;;;;;;5027722;28;20033;-68
2023/08/20 11:32:40;;;;;;;3.25;0.85;;;30.20;46.00;;;;;;5014103;28;20131;-69
2023/08/20 11:35:07;;;;;;;3.72;1.05;;;30.20;45.70;;;;;;5015185;28;20412;-69
2023/08/20 11:37:33;;;;;;;4.22;1.10;;;30.20;45.50;;;;;;5052585;28;20044;-69
2023/08/20 11:39:59;;;;;;;4.45;0.93;;;30.20;45.30;;;;;;5035275;28;20037;-69
2023/08/20 11:42:25;;;;;;;3.67;0.98;;;30.20;45.20;;;;;;5032754;28;20035;-69
2023/08/20 11:44:55;;;;;;;3.00;0.90;;;30.20;45.00;;;;;;5041475;28;20084;-69
2023/08/20 11:47:22;;;;;;;;;;;30.30;45.10;;;;;;5041661;28;20067;-69
2023/08/20 11:49:47;;;;;;;4.03;1.00;;;30.30;45.50;;;;;;5037655;28;20322;-69
2023/08/20 11:52:13;;;;;;;3.95;0.95;;;30.20;45.20;;;;;;5032786;28;20332;-69
2023/08/20 11:54:39;;;;;;;2.60;0.80;;;30.10;44.90;;;;;;5030177;28;20052;-69
2023/08/20 11:57:07;;;;;;;4.75;1.08;;;30.10;44.90;;;;;;5030022;28;20052;-68
2023/08/20 11:59:33;;;;;;;3.58;0.90;;;30.00;44.60;;;;;;5038188;28;20061;-69
2023/08/20 12:02:05;;;;;;;4.70;1.20;;;30.00;44.50;;;;;;5032114;28;20459;-69
2023/08/20 12:04:31;;;;;;;4.60;1.13;;;29.90;44.60;;;;;;5050636;28;20120;-68
2023/08/20 12:07:08;;;;;;;3.72;1.08;;;29.90;44.60;;;;;;5039664;28;20044;-69
2023/08/20 12:09:34;;;;;;;5.40;1.23;;;29.90;44.60;;;;;;5035730;28;20031;-68
2023/08/20 12:12:01;;;;;;;5.60;1.25;;;29.80;44.80;;;;;;5036477;28;20029;-68
2023/08/20 12:14:27;;;;;;;2.15;0.65;;;29.70;44.80;;;;;;5036816;28;20497;-68
2023/08/20 12:16:57;;;;;;;4.22;1.38;;;29.60;44.80;;;;;;5033620;28;20021;-68
2023/08/20 12:19:23;;;;;;;1.67;0.60;;;29.50;45.00;;;;;;5042111;28;20109;-69
2023/08/20 12:21:49;;;;;;;3.00;0.90;;;29.50;45.20;;;;;;5034541;28;20502;-69
2023/08/20 12:24:14;;;;;;;3.72;1.00;;;29.50;45.10;;;;;;5036850;28;20029;-68
2023/08/20 12:26:40;;;;;;;4.28;0.98;;;29.50;45.10;;;;;;5038263;28;20125;-68
2023/08/20 12:29:07;;;;;;;3.78;0.95;;;29.40;44.90;;;;;;5037623;28;20077;-69
2023/08/20 12:31:33;;;;;;;3.17;0.90;;;29.30;45.20;;;;;;5031300;28;20033;-69
2023/08/20 12:33:59;;;;;;;4.50;1.00;;;29.20;45.20;;;;;;5025204;28;20032;-68
2023/08/20 12:36:25;;;;;;;3.05;0.88;;;29.20;45.40;;;;;;5041466;28;20116;-68
2023/08/20 12:38:51;;;;;;;2.58;0.80;;;29.20;45.60;;;;;;5038452;28;20448;-68
2023/08/20 12:41:17;;;;;;;3.72;1.17;;;29.20;46.00;;;;;;5034531;28;20473;-68
2023/08/20 12:43:42;;;;;;;3.78;0.80;;;29.20;46.20;;;;;;5017506;28;20048;-68